Pattonville Airfield

EDTQ · Bade-Wurtemberg, Allemagne

4 octobre 2022

Temps Code Temps Temp. Vue Base cloud Vent METAR/SPECI
15:50
V
18 °C 10 km+ - 080° 080° 3 kt METAR EDDS 041350Z AUTO 08003KT 030V130 CAVOK 18/11 Q1022 NOSIG
15:20
V
17 °C 10 km+ - 050° 050° 3 kt METAR EDDS 041320Z AUTO 05003KT 350V130 CAVOK 17/10 Q1022 NOSIG
14:50
V
17 °C 10 km+ - 080° 080° 4 kt METAR EDDS 041250Z AUTO 08004KT 030V110 CAVOK 17/10 Q1022 NOSIG
14:20
V
16 °C 10 km+ - Var Var 3 kt METAR EDDS 041220Z AUTO VRB03KT CAVOK 16/10 Q1022 NOSIG
13:50
V
15 °C 10 km+ - Var Var 3 kt METAR EDDS 041150Z AUTO VRB03KT CAVOK 15/09 Q1023 NOSIG
13:20
V
15 °C 10 km+ - Var Var 2 kt METAR EDDS 041120Z AUTO VRB02KT CAVOK 15/10 Q1023 NOSIG
12:50
V
14 °C 10 km+ - 130° 130° 3 kt METAR EDDS 041050Z AUTO 13003KT 040V170 CAVOK 14/09 Q1023 NOSIG
12:20
V
13 °C 10 km+ - 110° 110° 3 kt METAR EDDS 041020Z AUTO 11003KT 060V180 CAVOK 13/09 Q1023 NOSIG
11:50
V
11 °C 10 km+ - Var Var 2 kt METAR EDDS 040950Z AUTO VRB02KT CAVOK 11/08 Q1023 NOSIG
11:20
V
10 °C 10 km+ - Var Var 1 kt METAR EDDS 040920Z AUTO VRB01KT CAVOK 10/08 Q1023 NOSIG
10:50
V
8 °C 10 km+ - Var Var 2 kt METAR EDDS 040850Z AUTO VRB02KT 9999 FEW002 08/07 Q1023 NOSIG
10:20
V
7 °C 10 km+ - 090° 090° 3 kt METAR EDDS 040820Z AUTO 09003KT 030V190 9999 FEW002 07/06 Q1023 NOSIG
09:50
V
6 °C 10 km+ - 060° 060° 3 kt METAR EDDS 040750Z AUTO 06003KT 030V100 CAVOK 06/06 Q1023 NOSIG
09:20
V
6 °C 10 km+ - Var Var 1 kt METAR EDDS 040720Z AUTO VRB01KT CAVOK 06/05 Q1023 NOSIG
08:50
V
5 °C 10 km+ - Var Var 1 kt METAR EDDS 040650Z AUTO VRB01KT CAVOK 05/05 Q1023 NOSIG
08:20
L
4 °C 350 m - Var Var 1 kt METAR EDDS 040620Z AUTO VRB01KT 0900 0350 R07/P2000N FG NSC 04/04 Q1023 BECMG 0800
07:50
L
4 °C 450 m - Var Var 1 kt METAR EDDS 040550Z AUTO VRB01KT 0450 R07/1300D FG FEW001 04/04 Q1023 TEMPO 0300
07:20
L
4 °C 700 m - 030° 030° 1 kt METAR EDDS 040520Z AUTO 03001KT 1000 0700 R07/1600D BCFG FEW001 04/04 Q1023 TEMPO 0600
06:50
L
4 °C 600 m - Var Var 2 kt METAR EDDS 040450Z AUTO VRB02KT 0650 0600 R07/P2000N FG FEW001 04/04 Q1023 TEMPO 0400
06:20
L
4 °C 600 m - 080° 080° 1 kt METAR EDDS 040420Z AUTO 08001KT 1100 0600 R07/1900N BCFG FEW001 04/04 Q1023 TEMPO 0400
05:50
L
4 °C 600 m - Var Var 1 kt METAR EDDS 040350Z AUTO VRB01KT 0650 0600 R07/1900N FG FEW001 04/04 Q1023
05:20
L
0 °C 650 m - Var Var 1 kt METAR EDDS 040320Z AUTO VRB01KT 0900 0650 R25/1300D FEW001 ///// Q////
04:50
L
4 °C 450 m - 260° 260° 3 kt METAR EDDS 040250Z AUTO 26003KT 0450 R25/1400U FG FEW001 04/04 Q1023
04:20
L
5 °C 350 m - Var 000° 0 kt METAR EDDS 040220Z AUTO 00000KT 0500 0350 R25/0400N FG FEW001 05/05 Q1023
03:50
L
5 °C 450 m - 300° 300° 1 kt METAR EDDS 040150Z AUTO 30001KT 0800 0450 R25/1000U FG FEW001 05/05 Q1023
03:20
L
5 °C 200 m - 330° 330° 1 kt METAR EDDS 040120Z AUTO 33001KT 0350 0200 R25/0650U FG FEW002 05/05 Q1024
02:50
L
5 °C 900 m - Var Var 1 kt METAR EDDS 040050Z AUTO VRB01KT 7000 0900 R25/1300D BCFG FEW001 05/05 Q1024
02:20
L
4 °C 650 m - 280° 280° 3 kt METAR EDDS 040020Z AUTO 28003KT 1400 0650 R25/1700D BCFG FEW001 04/05 Q1024
01:50
L
5 °C 900 m - 340° 340° 1 kt METAR EDDS 032350Z AUTO 34001KT 9999 0900 R25/1200U BCFG NCD 05/05 Q1024
01:20
V
6 °C 10 km+ - Var Var 1 kt METAR EDDS 032320Z AUTO VRB01KT CAVOK 06/05 Q1024
00:50
V
6 °C 10 km+ - Var Var 2 kt METAR EDDS 032250Z AUTO VRB02KT CAVOK 06/06 Q1025
00:20
V
7 °C 10 km+ - Var Var 1 kt METAR EDDS 032220Z AUTO VRB01KT CAVOK 07/07 Q1025

3 octobre 2022

Temps Code Temps Temp. Vue Base cloud Vent METAR/SPECI
23:50
V
7 °C 10 km+ - Var Var 2 kt METAR EDDS 032150Z AUTO VRB02KT CAVOK 07/06 Q1025
23:20
V
7 °C 10 km+ - 040° 040° 3 kt METAR EDDS 032120Z AUTO 04003KT CAVOK 07/06 Q1025
22:50
V
7 °C 10 km+ - Var Var 2 kt METAR EDDS 032050Z AUTO VRB02KT CAVOK 07/06 Q1025
22:20
V
7 °C 10 km+ - Var Var 1 kt METAR EDDS 032020Z AUTO VRB01KT CAVOK 07/06 Q1025
21:50
V
8 °C 10 km+ - 300° 300° 3 kt METAR EDDS 031950Z AUTO 30003KT CAVOK 08/06 Q1026 NOSIG
21:20
V
8 °C 10 km+ - 280° 280° 2 kt METAR EDDS 031920Z AUTO 28002KT CAVOK 08/06 Q1026 NOSIG
20:50
V
9 °C 10 km+ - 140° 140° 1 kt METAR EDDS 031850Z AUTO 14001KT CAVOK 09/06 Q1026 NOSIG
20:20
V
11 °C 10 km+ - 040° 040° 3 kt METAR EDDS 031820Z AUTO 04003KT 360V080 CAVOK 11/07 Q1026 NOSIG
19:50
V
10 °C 10 km+ - Var Var 2 kt METAR EDDS 031750Z AUTO VRB02KT CAVOK 10/07 Q1026 NOSIG
19:20
V
12 °C 10 km+ - 360° 360° 4 kt METAR EDDS 031720Z AUTO 36004KT CAVOK 12/07 Q1026 NOSIG
18:50
V
12 °C 10 km+ - 020° 020° 5 kt METAR EDDS 031650Z AUTO 02005KT CAVOK 12/07 Q1026 NOSIG
18:20
V
14 °C 10 km+ - 350° 350° 4 kt METAR EDDS 031620Z AUTO 35004KT 290V030 9999 FEW031 14/07 Q1026 NOSIG
17:50
V
15 °C 10 km+ - 360° 360° 3 kt METAR EDDS 031550Z AUTO 36003KT 320V040 9999 FEW032 15/07 Q1026 NOSIG
17:20
V
15 °C 10 km+ - Var Var 3 kt METAR EDDS 031520Z AUTO VRB03KT 9999 FEW031 15/07 Q1026 NOSIG
16:50
V
14 °C 10 km+ - 320° 320° 4 kt METAR EDDS 031450Z AUTO 32004KT 280V040 9999 FEW032 14/07 Q1026 NOSIG
16:20
V
14 °C 10 km+ - 360° 360° 4 kt METAR EDDS 031420Z AUTO 36004KT 270V070 9999 SCT032 14/07 Q1026 NOSIG
15:50
V
14 °C 10 km+ - 330° 330° 5 kt METAR EDDS 031350Z AUTO 33005KT 290V030 9999 SCT031 14/07 Q1026 NOSIG
15:20
V
14 °C 10 km+ - Var Var 4 kt METAR EDDS 031320Z AUTO VRB04KT 9999 FEW036 14/07 Q1026 NOSIG
14:50
V
14 °C 10 km+ - 330° 330° 5 kt METAR EDDS 031250Z AUTO 33005KT 260V030 9999 SCT023 14/08 Q1027 NOSIG
14:20
V
14 °C 10 km+ - Var Var 2 kt METAR EDDS 031220Z AUTO VRB02KT 9999 FEW021 SCT038 14/08 Q1027 NOSIG
13:50
V
13 °C 10 km+ 3.600 ft 340° 340° 6 kt METAR EDDS 031150Z AUTO 34006KT 300V020 9999 FEW018 BKN036 13/09 Q1027 NOSIG
13:20
V
14 °C 10 km+ 3.600 ft 030° 030° 4 kt METAR EDDS 031120Z AUTO 03004KT 310V110 9999 FEW018 SCT024 BKN036 14/09 Q1027 NOSIG
12:50
M
12 °C 10 km+ 2.700 ft 340° 340° 5 kt METAR EDDS 031050Z AUTO 34005KT 300V040 9999 SCT018 BKN027 OVC033 12/09 Q1027 NOSIG
12:20
M
12 °C 10 km+ 2.800 ft 350° 350° 3 kt METAR EDDS 031020Z AUTO 35003KT 300V070 9999 FEW013 SCT017 BKN028 12/08 Q1027 NOSIG
11:50
V
13 °C 10 km+ 3.200 ft Var Var 4 kt METAR EDDS 030950Z AUTO VRB04KT 9999 FEW016 SCT024 BKN032 13/09 Q1027
11:20
M
12 °C 10 km+ 2.100 ft 230° 230° 4 kt METAR EDDS 030920Z AUTO 23004KT 170V280 9999 FEW010 BKN021 BKN034 12/10 Q1027 NOSIG
10:50
M
11 °C 10 km+ 1.600 ft 250° 250° 3 kt METAR EDDS 030850Z AUTO 25003KT 210V280 9999 FEW009 OVC016 11/09 Q1027 NOSIG
10:20
M
11 °C 10 km+ 1.400 ft 290° 290° 5 kt METAR EDDS 030820Z AUTO 29005KT 9999 SCT009 OVC014 11/09 Q1027 BECMG BKN015
09:50
I
11 °C 10 km+ 800 ft 310° 310° 4 kt METAR EDDS 030750Z AUTO 31004KT 9999 BKN008 OVC011 11/09 Q1027 BECMG BKN012
09:20
I
11 °C 10 km+ 500 ft 270° 270° 3 kt METAR EDDS 030720Z AUTO 27003KT 230V300 9999 BKN005 BKN011 11/10 Q1027 BECMG BKN015
08:50
I
10 °C 9 km 500 ft 280° 280° 5 kt METAR EDDS 030650Z AUTO 28005KT 240V300 9000 BKN005 OVC010 10/10 Q1027 BECMG BKN010
08:20
I
10 °C 10 km+ 600 ft 270° 270° 5 kt METAR EDDS 030620Z AUTO 27005KT 9999 BKN006 10/09 Q1026 BECMG BKN010
07:50
I
9 °C 9 km 700 ft 250° 250° 4 kt METAR EDDS 030550Z AUTO 25004KT 9000 BKN007 09/09 Q1026 NOSIG
07:20
I
8 °C 10 km+ 800 ft 230° 230° 3 kt METAR EDDS 030520Z AUTO 23003KT 9999 FEW003 BKN008 BKN038 08/08 Q1026 TEMPO 4000 BR
06:50
I
8 °C 2,3 km 2.300 ft Var Var 1 kt METAR EDDS 030450Z AUTO VRB01KT 7000 2300 BR SCT009 BKN023 08/08 Q1026 TEMPO 1200 BR BKN008
06:20
V
8 °C 10 km+ - 270° 270° 5 kt METAR EDDS 030420Z AUTO 27005KT 9999 SCT019 08/08 Q1026 NOSIG
05:50
V
8 °C 9 km - Var Var 2 kt METAR EDDS 030350Z AUTO VRB02KT 9000 SCT019 08/08 Q1025
05:20
M
10 °C 10 km+ 1.900 ft 240° 240° 3 kt METAR EDDS 030320Z AUTO 24003KT 9999 FEW010 BKN019 BKN039 10/09 Q1026
04:50
M
10 °C 10 km+ 1.800 ft Var Var 2 kt METAR EDDS 030250Z AUTO VRB02KT 9999 FEW008 BKN018 BKN026 10/10 Q1026
04:20
V
10 °C 10 km+ 3.000 ft 240° 240° 2 kt METAR EDDS 030220Z AUTO 24002KT 9999 FEW007 BKN030 BKN038 10/09 Q1026
03:50
M
9 °C 10 km+ 2.900 ft Var Var 2 kt METAR EDDS 030150Z AUTO VRB02KT 9999 FEW014 BKN029 BKN034 09/09 Q1025
03:20
V
9 °C 10 km+ - 350° 350° 3 kt METAR EDDS 030120Z AUTO 35003KT 9999 FEW007 SCT029 09/08 Q1025
02:50
V
10 °C 10 km+ - 310° 310° 3 kt METAR EDDS 030050Z AUTO 31003KT 280V360 9999 FEW007 10/09 Q1025
02:20
V
10 °C 10 km+ - Var 000° 0 kt METAR EDDS 030020Z AUTO 00000KT 9999 R25/0700N SCT036 10/10 Q1025
01:50
V
10 °C 10 km+ - 320° 320° 2 kt METAR EDDS 022350Z AUTO 32002KT 9999 SCT037 10/10 Q1024
01:20
V
11 °C 10 km+ 3.400 ft 270° 270° 7 kt METAR EDDS 022320Z AUTO 27007KT 9999 BKN034 11/10 Q1024
00:50
V
11 °C 10 km+ 3.000 ft 280° 280° 6 kt METAR EDDS 022250Z AUTO 28006KT 9999 FEW021 BKN030 11/10 Q1024
00:20
V
11 °C 10 km+ 3.100 ft 290° 290° 5 kt METAR EDDS 022220Z AUTO 29005KT 9999 FEW018 SCT025 BKN031 11/11 Q1024

2 octobre 2022

Temps Code Temps Temp. Vue Base cloud Vent METAR/SPECI
23:50
M
11 °C 10 km+ 2.300 ft 300° 300° 3 kt METAR EDDS 022150Z AUTO 30003KT 9999 SCT019 BKN023 BKN027 11/11 Q1024
23:20
M
12 °C 10 km+ 1.500 ft 300° 300° 3 kt METAR EDDS 022120Z AUTO 30003KT 9999 SCT011 BKN015 BKN023 12/11 Q1024
22:50
M
12 °C 10 km+ 1.300 ft 280° 280° 4 kt METAR EDDS 022050Z AUTO 28004KT 240V300 9999 BKN013 OVC023 12/11 Q1023
22:20
M
12 °C 10 km+ 2.400 ft 270° 270° 1 kt METAR EDDS 022020Z AUTO 27001KT 9999 FEW005 BKN024 12/11 Q1022
21:50
V
12 °C 10 km+ - Var Var 2 kt METAR EDDS 021950Z AUTO VRB02KT 9999 -SHRA FEW005 FEW///TCU 12/11 Q1022 RESHRA NOSIG
21:20
I
12 °C 4 km - 270° 270° 3 kt METAR EDDS 021920Z AUTO 27003KT 240V350 4000 +SHRA BR FEW008 SCT///CB 12/11 Q1022 BECMG 8000 NSW
20:50
V
12 °C 10 km+ - 300° 300° 3 kt METAR EDDS 021850Z AUTO 30003KT 9999 -RA FEW009 SCT017 12/11 Q1022 TEMPO RA
20:20
V
12 °C 10 km+ - Var Var 2 kt METAR EDDS 021820Z AUTO VRB02KT 9999 -RA FEW009 SCT017 12/11 Q1021 TEMPO RA
19:50
M
12 °C 7 km - Var Var 1 kt METAR EDDS 021750Z AUTO VRB01KT 7000 -RA FEW012 12/11 Q1021 RERA TEMPO RA
19:20
M
12 °C 7 km 3.800 ft Var Var 2 kt METAR EDDS 021720Z AUTO VRB02KT 7000 +RA FEW006 BKN038 12/11 Q1021 TEMPO RA
18:50
M
12 °C 5 km 4.300 ft Var Var 2 kt METAR EDDS 021650Z AUTO VRB02KT 5000 RA BR FEW006 BKN043 12/12 Q1020 NOSIG
18:20
V
12 °C 10 km+ - Var Var 1 kt METAR EDDS 021620Z AUTO VRB01KT 9999 SHRA FEW011 FEW///TCU 12/11 Q1020 TEMPO -SHRA
17:50
I
12 °C 3,1 km 3.100 ft Var Var 3 kt METAR EDDS 021550Z AUTO VRB03KT 3100 SHRA BR SCT007 BKN031 OVC046 FEW///TCU 12/11 Q1020 TEMPO -SHRA
17:20
I
12 °C 3,7 km 700 ft Var Var 2 kt METAR EDDS 021520Z AUTO VRB02KT 3700 SHRA BR BKN007 OVC042 BKN///TCU 12/11 Q1019 TEMPO 5000 -SHRA
16:50
M
13 °C 10 km+ 1.100 ft 340° 340° 6 kt METAR EDDS 021450Z AUTO 34006KT 290V360 9999 -RADZ BKN011 BKN025 13/12 Q1019 TEMPO 4500 RADZ BKN008
16:20
I
13 °C 10 km+ 700 ft 360° 360° 8 kt METAR EDDS 021420Z AUTO 36008KT 320V030 9999 BKN007 BKN013 OVC027 13/12 Q1019 TEMPO RA
15:50
V
13 °C 10 km+ 3.000 ft 340° 340° 5 kt METAR EDDS 021350Z AUTO 34005KT 300V030 9999 -SHRA SCT007 BKN030 OVC040 FEW///TCU 13/12 Q1019 RESHRA NOSIG
Données plus anciennes

Nous et des tiers suivons ton comportement sur Internet sur notre site Web à l'aide de cookies. Si tu continues, nous supposons que tu acceptes notre politique en matière de cookies. Apprendre plus